Time;durP1;ratioP1;P1;durP2;ratioP2;P2;SDS_P1;SDS_P2;PMS_P1;PMS_P2;Temp;Humidity;BMP_temperature;BMP_pressure;BME280_temperature;BME280_humidity;BME280_pressure;Samples;Min_cycle;Max_cycle;Signal;HPM_P1;HPM_P2
2022/05/30 00:01:28;;;;;;;11.50;3.60;;;9.00;1.00;;;;;;5017913;28;21038;-63
2022/05/30 00:03:55;;;;;;;5.93;3.00;;;9.00;1.00;;;;;;5017449;28;20512;-63
2022/05/30 00:06:23;;;;;;;8.33;3.73;;;9.00;1.00;;;;;;5017219;28;20475;-63
2022/05/30 00:08:51;;;;;;;6.80;3.57;;;9.00;6.20;;;;;;5017442;28;20468;-63
2022/05/30 00:11:19;;;;;;;6.10;3.30;;;9.00;15.90;;;;;;5017178;28;20873;-63
2022/05/30 00:13:47;;;;;;;8.07;3.63;;;9.00;16.30;;;;;;5017170;28;20468;-63
2022/05/30 00:16:16;;;;;;;5.83;3.60;;;9.10;37.00;;;;;;5017499;28;20464;-63
2022/05/30 00:18:44;;;;;;;4.97;3.23;;;9.10;9.90;;;;;;5016930;28;20464;-63
2022/05/30 00:21:12;;;;;;;6.70;3.30;;;9.10;24.00;;;;;;5017414;28;20861;-63
2022/05/30 00:23:42;;;;;;;7.80;3.43;;;9.20;22.80;;;;;;5017611;28;20538;-63
2022/05/30 00:26:10;;;;;;;7.50;3.20;;;9.10;19.00;;;;;;5016723;28;20482;-63
2022/05/30 00:28:39;;;;;;;6.37;3.30;;;9.10;19.80;;;;;;5016770;28;20550;-63
2022/05/30 00:31:12;;;;;;;11.50;4.00;;;9.20;25.40;;;;;;5017329;28;20474;-63
2022/05/30 00:33:39;;;;;;;7.00;3.77;;;9.20;11.70;;;;;;5017796;28;20464;-63
2022/05/30 00:36:07;;;;;;;6.37;3.70;;;9.20;14.60;;;;;;5016256;28;20472;-63
2022/05/30 00:38:35;;;;;;;6.23;3.13;;;9.10;1.00;;;;;;5017098;28;20503;-63
2022/05/30 00:41:03;;;;;;;6.73;3.43;;;9.10;1.00;;;;;;5016825;28;20546;-63
2022/05/30 00:43:32;;;;;;;5.43;3.27;;;9.10;1.00;;;;;;5017083;28;20476;-63
2022/05/30 00:46:06;;;;;;;12.30;4.20;;;9.10;1.00;;;;;;5016367;28;20470;-63
2022/05/30 00:48:39;;;;;;;6.37;3.60;;;9.00;1.00;;;;;;5017183;28;20463;-63
2022/05/30 00:51:12;;;;;;;7.33;3.67;;;9.00;1.00;;;;;;5016818;28;20464;-63
2022/05/30 00:53:40;;;;;;;6.53;4.03;;;9.10;57.90;;;;;;5017579;28;20821;-63
2022/05/30 00:56:10;;;;;;;5.47;3.23;;;9.00;58.20;;;;;;5016003;28;20475;-63
2022/05/30 00:58:42;;;;;;;11.23;3.63;;;8.90;53.50;;;;;;5017337;28;20897;-63
2022/05/30 01:01:11;;;;;;;5.73;3.50;;;8.90;99.90;;;;;;5016684;28;20499;-63
2022/05/30 01:06:32;;;;;;;6.57;4.30;;;8.90;99.90;;;;;;5016083;28;20506;-63
2022/05/30 01:09:00;;;;;;;7.73;3.73;;;8.90;99.90;;;;;;5017393;28;20464;-63
2022/05/30 01:11:29;;;;;;;4.93;3.77;;;8.90;99.90;;;;;;5016963;28;20435;-63
2022/05/30 01:13:55;;;;;;;5.83;3.50;;;9.00;99.90;;;;;;5017058;28;20443;-63
2022/05/30 01:16:24;;;;;;;7.37;3.10;;;8.90;99.90;;;;;;5016330;28;20809;-63
2022/05/30 01:18:56;;;;;;;8.50;3.90;;;8.90;99.90;;;;;;5020516;28;20546;-63
2022/05/30 01:21:46;;;;;;;6.83;3.23;;;8.90;99.90;;;;;;5019798;28;20577;-63
2022/05/30 01:24:26;;;;;;;8.30;3.47;;;8.90;99.90;;;;;;5020588;28;20545;-63
2022/05/30 01:27:07;;;;;;;11.77;4.13;;;8.90;99.90;;;;;;5020280;28;20464;-63
2022/05/30 01:29:39;;;;;;;6.53;3.47;;;8.90;99.90;;;;;;5020626;28;20488;-63
2022/05/30 01:32:07;;;;;;;7.00;3.27;;;9.00;99.90;;;;;;5020028;28;20888;-63
2022/05/30 01:34:34;;;;;;;7.17;3.97;;;9.00;99.90;;;;;;5020530;28;20526;-63
2022/05/30 01:37:04;;;;;;;7.70;3.53;;;9.00;99.90;;;;;;5020220;28;20464;-63
2022/05/30 01:39:34;;;;;;;7.77;3.40;;;9.00;99.90;;;;;;5019885;28;20470;-63
2022/05/30 01:45:28;;;;;;;5.70;3.37;;;9.00;99.90;;;;;;5020199;28;20462;-63
2022/05/30 01:47:55;;;;;;;4.07;3.37;;;9.10;99.90;;;;;;5019984;28;20500;-63
2022/05/30 01:50:24;;;;;;;9.13;4.07;;;9.10;99.90;;;;;;5019953;28;20543;-63
2022/05/30 01:52:50;;;;;;;9.20;4.20;;;9.00;99.90;;;;;;5019577;28;20943;-63
2022/05/30 01:55:17;;;;;;;7.27;4.00;;;9.10;99.90;;;;;;5020163;28;20797;-63
2022/05/30 01:57:44;;;;;;;8.50;3.77;;;9.10;99.90;;;;;;5020220;28;20491;-63
2022/05/30 02:00:17;;;;;;;8.13;3.87;;;9.00;99.90;;;;;;5019428;28;20499;-63
2022/05/30 02:02:47;;;;;;;6.53;3.77;;;9.00;99.90;;;;;;5019621;28;21075;-63
2022/05/30 02:05:14;;;;;;;7.43;3.83;;;9.00;99.90;;;;;;5020061;28;20785;-63
2022/05/30 02:07:42;;;;;;;7.93;4.17;;;9.00;99.90;;;;;;5019693;28;20468;-63
2022/05/30 02:10:12;;;;;;;5.93;3.80;;;9.00;99.90;;;;;;5019203;28;20920;-63
2022/05/30 02:12:39;;;;;;;9.83;4.20;;;9.00;99.90;;;;;;5019979;28;20475;-63
2022/05/30 02:15:07;;;;;;;9.27;3.87;;;8.80;99.90;;;;;;5018471;28;20467;-63
2022/05/30 02:17:35;;;;;;;8.10;4.27;;;8.80;99.90;;;;;;5019366;28;20860;-63
2022/05/30 02:20:04;;;;;;;9.33;4.40;;;8.90;1.00;;;;;;5018384;28;20467;-63
2022/05/30 02:22:32;;;;;;;7.27;3.73;;;8.90;1.00;;;;;;5019454;28;20843;-63
2022/05/30 02:25:00;;;;;;;7.53;3.67;;;8.90;99.90;;;;;;5018713;28;20526;-63
2022/05/30 02:27:30;;;;;;;6.17;4.20;;;8.90;99.90;;;;;;5019618;28;20890;-63
2022/05/30 02:29:57;;;;;;;5.10;3.73;;;8.90;99.90;;;;;;5018345;28;20460;-63
2022/05/30 02:32:24;;;;;;;9.77;3.73;;;8.90;99.90;;;;;;5019149;28;20460;-63
2022/05/30 02:37:39;;;;;;;8.97;3.80;;;9.00;59.60;;;;;;5019278;28;20435;-64
2022/05/30 02:40:08;;;;;;;8.07;4.47;;;8.90;35.40;;;;;;5018360;28;20462;-63
2022/05/30 02:42:35;;;;;;;8.37;3.63;;;9.00;45.70;;;;;;5018866;28;20832;-64
2022/05/30 02:45:05;;;;;;;6.13;3.47;;;8.90;28.20;;;;;;5019065;28;20859;-64
2022/05/30 02:47:31;;;;;;;10.60;4.07;;;9.00;10.10;;;;;;5019472;28;20500;-64
2022/05/30 02:49:58;;;;;;;6.93;3.83;;;8.80;1.00;;;;;;5019545;28;20546;-64
2022/05/30 02:52:30;;;;;;;9.60;4.40;;;8.80;1.00;;;;;;5018352;28;20910;-64
2022/05/30 02:54:58;;;;;;;7.20;3.80;;;8.80;1.00;;;;;;5019233;28;20739;-64
2022/05/30 02:57:25;;;;;;;9.77;4.30;;;8.80;44.80;;;;;;5018963;28;20558;-64
2022/05/30 02:59:52;;;;;;;6.73;3.87;;;8.90;99.90;;;;;;5018860;28;20539;-64
2022/05/30 03:02:19;;;;;;;11.37;4.30;;;8.90;99.90;;;;;;5018708;28;21040;-64
2022/05/30 03:04:46;;;;;;;7.13;3.50;;;8.90;99.90;;;;;;5018786;28;20814;-64
2022/05/30 03:07:13;;;;;;;9.63;3.90;;;9.00;99.90;;;;;;5018212;28;20554;-64
2022/05/30 03:09:42;;;;;;;6.30;3.40;;;9.00;99.90;;;;;;5018901;28;20951;-64
2022/05/30 03:12:11;;;;;;;6.13;3.90;;;9.00;99.90;;;;;;5018365;28;20467;-64
2022/05/30 03:14:41;;;;;;;5.77;4.20;;;9.00;99.90;;;;;;5018484;28;20464;-64
2022/05/30 03:17:08;;;;;;;7.10;4.07;;;9.00;99.90;;;;;;5017887;28;20554;-64
2022/05/30 03:19:35;;;;;;;10.30;4.30;;;9.00;98.70;;;;;;5019023;28;20500;-65
2022/05/30 03:22:01;;;;;;;6.23;3.70;;;8.90;71.40;;;;;;5018123;28;20574;-65
2022/05/30 03:24:28;;;;;;;10.73;3.53;;;8.90;99.90;;;;;;5018191;28;20468;-64
2022/05/30 03:26:55;;;;;;;6.13;3.93;;;8.90;99.90;;;;;;5018314;28;20506;-64
2022/05/30 03:29:23;;;;;;;5.97;3.70;;;9.00;99.90;;;;;;5018268;28;20534;-65
2022/05/30 03:31:50;;;;;;;8.37;4.50;;;8.90;99.90;;;;;;5018495;28;20489;-64
2022/05/30 03:34:17;;;;;;;8.07;3.83;;;8.90;99.90;;;;;;5018482;28;20496;-64
2022/05/30 03:36:44;;;;;;;6.97;3.77;;;8.80;99.90;;;;;;5017962;28;20463;-64
2022/05/30 03:39:11;;;;;;;8.77;3.53;;;8.80;99.90;;;;;;5018159;28;20554;-64
2022/05/30 03:41:38;;;;;;;5.23;3.20;;;8.80;99.90;;;;;;5017182;28;20590;-64
2022/05/30 03:44:07;;;;;;;7.20;3.67;;;8.80;99.90;;;;;;5018002;28;20526;-64
2022/05/30 03:46:35;;;;;;;7.57;3.97;;;8.80;99.90;;;;;;5017844;28;20528;-64
2022/05/30 03:49:02;;;;;;;7.97;4.40;;;8.80;99.90;;;;;;5017835;28;20554;-64
2022/05/30 03:51:29;;;;;;;9.90;4.70;;;8.80;99.90;;;;;;5018060;28;20499;-64
2022/05/30 03:53:56;;;;;;;10.13;4.50;;;8.90;99.90;;;;;;5017631;28;20468;-64
2022/05/30 03:56:23;;;;;;;8.00;3.73;;;8.90;99.90;;;;;;5017894;28;20837;-64
2022/05/30 03:58:52;;;;;;;9.83;4.67;;;8.90;99.90;;;;;;5017741;28;20507;-64
2022/05/30 04:01:19;;;;;;;10.17;4.70;;;8.90;99.90;;;;;;5017907;28;20531;-65
2022/05/30 04:03:48;;;;;;;6.70;4.30;;;8.90;99.90;;;;;;5017894;28;20495;-65
2022/05/30 04:06:17;;;;;;;11.17;4.13;;;9.00;99.90;;;;;;5017636;28;20492;-65
2022/05/30 04:08:44;;;;;;;8.57;4.20;;;8.90;99.90;;;;;;5017700;28;20460;-65
2022/05/30 04:11:11;;;;;;;8.70;4.30;;;9.00;99.90;;;;;;5017644;28;20460;-65
2022/05/30 04:13:41;;;;;;;12.40;3.70;;;9.00;99.90;;;;;;5017742;28;20506;-65
2022/05/30 04:16:10;;;;;;;7.73;3.70;;;9.00;99.90;;;;;;5016714;28;20519;-65
2022/05/30 04:18:36;;;;;;;7.07;4.50;;;9.10;99.90;;;;;;5017372;28;20559;-65
2022/05/30 04:21:07;;;;;;;9.20;4.37;;;9.10;99.90;;;;;;5017268;28;20495;-65
2022/05/30 04:23:37;;;;;;;8.70;4.10;;;9.10;99.90;;;;;;5016389;28;20511;-65
2022/05/30 04:26:08;;;;;;;10.03;4.00;;;9.00;99.90;;;;;;5017070;28;20500;-65
2022/05/30 04:28:35;;;;;;;9.67;3.60;;;8.90;49.10;;;;;;5016945;28;20534;-65
2022/05/30 04:31:06;;;;;;;7.20;4.10;;;9.00;69.60;;;;;;5016238;28;20467;-66
2022/05/30 04:33:34;;;;;;;8.17;4.13;;;9.10;56.90;;;;;;5015929;28;20460;-65
2022/05/30 04:36:02;;;;;;;8.50;3.87;;;9.10;50.50;;;;;;5016032;28;21118;-68
2022/05/30 04:38:31;;;;;;;10.50;3.90;;;9.20;35.80;;;;;;5036854;28;20489;-69
2022/05/30 04:41:01;;;;;;;9.67;3.60;;;9.20;1.00;;;;;;5037023;28;20839;-70
2022/05/30 04:43:28;;;;;;;7.63;3.70;;;9.30;1.00;;;;;;5037225;28;20494;-68
2022/05/30 04:46:07;;;;;;;5.27;3.63;;;9.30;1.00;;;;;;5037474;28;22101;-69
2022/05/30 04:48:34;;;;;;;12.13;3.80;;;9.30;1.00;;;;;;5037140;28;20563;-70
2022/05/30 04:51:02;;;;;;;6.37;3.50;;;9.20;1.00;;;;;;5036995;28;20499;-69
2022/05/30 04:53:37;;;;;;;17.67;4.50;;;9.40;1.00;;;;;;5040406;28;20870;-69
2022/05/30 04:56:05;;;;;;;5.53;3.40;;;9.40;1.00;;;;;;5040877;28;20923;-70
2022/05/30 04:58:33;;;;;;;8.20;3.30;;;9.40;1.00;;;;;;5040928;28;20574;-69
2022/05/30 05:01:02;;;;;;;8.70;4.20;;;9.40;1.00;;;;;;5040924;28;20900;-69
2022/05/30 05:03:30;;;;;;;5.87;3.33;;;9.30;1.00;;;;;;5041247;28;20470;-70
2022/05/30 05:06:02;;;;;;;8.23;3.50;;;9.30;1.00;;;;;;5040843;28;20529;-69
2022/05/30 05:08:38;;;;;;;6.93;4.03;;;9.20;1.00;;;;;;5040750;28;20566;-70
2022/05/30 05:11:16;;;;;;;11.60;5.23;;;9.50;1.00;;;;;;5041021;28;20463;-70
2022/05/30 05:13:43;;;;;;;9.10;4.13;;;9.60;1.00;;;;;;5040853;28;20463;-69
2022/05/30 05:16:11;;;;;;;8.57;3.73;;;9.60;1.00;;;;;;5040369;28;20554;-69
2022/05/30 05:18:38;;;;;;;9.47;4.10;;;9.60;1.00;;;;;;5040764;28;20453;-71
2022/05/30 05:21:05;;;;;;;6.07;3.37;;;9.70;1.00;;;;;;5039754;28;20498;-70
2022/05/30 05:23:35;;;;;;;6.90;3.97;;;9.70;1.00;;;;;;5023326;28;20471;-73
2022/05/30 05:26:11;;;;;;;8.77;3.67;;;9.70;1.00;;;;;;5038872;28;20848;-71
2022/05/30 05:28:39;;;;;;;8.60;4.13;;;9.70;1.00;;;;;;5039349;28;20518;-71
2022/05/30 05:31:06;;;;;;;8.57;4.67;;;9.70;1.00;;;;;;5039058;28;20529;-72
2022/05/30 05:33:34;;;;;;;7.47;4.93;;;9.80;1.00;;;;;;5028969;28;20596;-71
2022/05/30 05:36:01;;;;;;;9.70;4.60;;;10.00;1.00;;;;;;5039863;28;20451;-71
2022/05/30 05:38:28;;;;;;;13.40;5.40;;;10.20;1.00;;;;;;5040193;28;20896;-72
2022/05/30 05:40:55;;;;;;;8.80;5.37;;;10.20;1.00;;;;;;5040053;28;20558;-71
2022/05/30 05:43:23;;;;;;;11.80;5.60;;;10.20;1.00;;;;;;5040355;28;20534;-70
2022/05/30 05:45:50;;;;;;;11.37;5.47;;;10.30;1.00;;;;;;5039801;28;20463;-70
2022/05/30 05:48:17;;;;;;;10.90;5.70;;;10.30;1.00;;;;;;5040069;28;20505;-70
2022/05/30 05:50:47;;;;;;;16.03;5.90;;;10.10;1.00;;;;;;5040247;28;20513;-68
2022/05/30 05:53:18;;;;;;;7.40;4.30;;;10.00;1.00;;;;;;5040004;28;20553;-71
2022/05/30 05:55:45;;;;;;;9.33;4.50;;;10.10;1.00;;;;;;5039855;28;20451;-70
2022/05/30 05:58:12;;;;;;;15.20;5.13;;;10.40;1.00;;;;;;5039547;28;20498;-71
2022/05/30 06:00:40;;;;;;;7.80;4.33;;;10.50;1.00;;;;;;5039803;28;20494;-71
2022/05/30 06:03:07;;;;;;;8.97;4.50;;;10.60;1.00;;;;;;5039204;28;20491;-70
2022/05/30 06:05:39;;;;;;;7.70;4.07;;;10.80;1.00;;;;;;5039253;28;20499;-70
2022/05/30 06:08:07;;;;;;;9.00;4.13;;;10.80;99.90;;;;;;5039769;28;20483;-71
2022/05/30 06:11:04;;;;;;;11.83;5.03;;;10.70;99.90;;;;;;5039390;28;20467;-70
2022/05/30 06:13:21;;;;;;;7.67;4.77;;;11.00;99.90;;;;;;5039604;28;20438;-69
2022/05/30 06:15:49;;;;;;;9.17;3.60;;;10.90;99.90;;;;;;5039208;28;20506;-70
2022/05/30 06:18:16;;;;;;;11.70;4.40;;;10.90;99.90;;;;;;5039310;28;20498;-70
2022/05/30 06:20:43;;;;;;;10.80;4.20;;;11.30;99.90;;;;;;5039437;28;20494;-70
2022/05/30 06:23:10;;;;;;;9.83;4.43;;;11.60;99.90;;;;;;5021965;28;20503;-69
2022/05/30 06:25:38;;;;;;;10.90;4.20;;;11.70;99.90;;;;;;5017382;28;20460;-68
2022/05/30 06:28:05;;;;;;;11.50;3.87;;;11.60;99.90;;;;;;5019438;28;20567;-70
2022/05/30 06:30:32;;;;;;;12.47;4.07;;;11.60;99.90;;;;;;5017607;28;20563;-70
2022/05/30 06:33:03;;;;;;;11.37;3.93;;;11.80;99.90;;;;;;5019178;28;20488;-69
2022/05/30 06:35:33;;;;;;;7.83;4.00;;;11.50;99.90;;;;;;5011933;28;20568;-69
2022/05/30 06:38:00;;;;;;;9.60;4.80;;;11.10;99.90;;;;;;5015866;28;20894;-70
2022/05/30 06:40:27;;;;;;;8.23;4.17;;;11.10;99.90;;;;;;5017896;28;20527;-69
2022/05/30 06:42:56;;;;;;;10.53;5.00;;;10.90;99.90;;;;;;5018117;28;20466;-70
2022/05/30 06:45:24;;;;;;;10.73;3.67;;;10.70;99.90;;;;;;5014480;28;20940;-69
2022/05/30 06:47:51;;;;;;;7.57;4.07;;;10.80;99.90;;;;;;5009414;28;20442;-69
2022/05/30 06:50:23;;;;;;;10.23;4.10;;;10.90;99.90;;;;;;5013792;28;20551;-69
2022/05/30 06:52:50;;;;;;;8.50;3.70;;;11.20;99.90;;;;;;5014021;28;20463;-70
2022/05/30 06:55:17;;;;;;;10.17;3.73;;;11.60;99.90;;;;;;5017717;28;20798;-69
2022/05/30 07:00:30;;;;;;;6.17;3.50;;;11.40;99.90;;;;;;5023115;28;20990;-69
2022/05/30 07:02:57;;;;;;;6.33;3.60;;;11.10;99.90;;;;;;5020818;28;20626;-68
2022/05/30 07:05:25;;;;;;;10.50;3.87;;;11.10;99.90;;;;;;5013475;28;20550;-68
2022/05/30 07:07:56;;;;;;;7.40;3.60;;;11.00;99.90;;;;;;5012688;28;20961;-69
2022/05/30 07:10:24;;;;;;;6.67;3.67;;;11.20;99.90;;;;;;5016451;28;20900;-68
2022/05/30 07:12:53;;;;;;;11.50;4.13;;;11.10;99.90;;;;;;5032786;28;20554;-67
2022/05/30 07:15:21;;;;;;;12.40;5.00;;;11.60;99.90;;;;;;5038380;28;20551;-68
2022/05/30 07:17:48;;;;;;;9.83;3.83;;;11.70;99.90;;;;;;5025836;28;20567;-68
2022/05/30 07:20:17;;;;;;;7.03;3.33;;;11.80;99.90;;;;;;5019158;28;20460;-68
2022/05/30 07:22:47;;;;;;;6.60;4.03;;;11.90;99.90;;;;;;5018258;28;20506;-68
2022/05/30 07:25:14;;;;;;;12.23;4.47;;;12.40;99.90;;;;;;5034766;28;20494;-67
2022/05/30 07:27:44;;;;;;;11.80;4.33;;;12.30;99.90;;;;;;5030747;28;20518;-67
2022/05/30 07:30:11;;;;;;;9.13;3.50;;;12.80;99.90;;;;;;5035445;28;20463;-67
2022/05/30 07:32:38;;;;;;;6.70;3.30;;;13.20;99.90;;;;;;5025817;28;20551;-67
2022/05/30 07:35:06;;;;;;;8.00;3.23;;;13.40;99.90;;;;;;5035751;28;20830;-67
2022/05/30 07:37:35;;;;;;;13.50;3.77;;;13.20;99.90;;;;;;5035947;28;20463;-66
2022/05/30 07:40:05;;;;;;;7.20;4.10;;;12.80;99.90;;;;;;5035411;28;20463;-67
2022/05/30 07:42:35;;;;;;;8.00;3.73;;;12.80;99.90;;;;;;5030242;28;20554;-66
2022/05/30 07:45:02;;;;;;;8.70;4.00;;;12.50;99.90;;;;;;5037040;28;20502;-66
2022/05/30 07:47:29;;;;;;;8.33;4.00;;;12.90;99.90;;;;;;5037640;28;20499;-66
2022/05/30 07:50:02;;;;;;;7.10;4.00;;;13.10;99.90;;;;;;5019087;28;20554;-66
2022/05/30 07:52:30;;;;;;;6.20;3.73;;;12.70;99.90;;;;;;4999421;28;20499;-66
2022/05/30 07:54:57;;;;;;;4.70;3.90;;;13.30;99.90;;;;;;5017671;28;20819;-66
2022/05/30 08:00:11;;;;;;;6.00;4.33;;;14.00;99.90;;;;;;5022351;28;20443;-65
2022/05/30 08:02:38;;;;;;;7.73;4.43;;;14.20;99.90;;;;;;5017877;28;20579;-65
2022/05/30 08:05:06;;;;;;;10.40;4.50;;;14.40;99.90;;;;;;5021744;28;20761;-65
2022/05/30 08:07:33;;;;;;;8.67;4.20;;;14.50;99.90;;;;;;5037471;28;20529;-64
2022/05/30 08:10:03;;;;;;;7.30;4.57;;;14.60;99.90;;;;;;5029321;28;20470;-64
2022/05/30 08:12:34;;;;;;;5.00;3.33;;;14.70;99.90;;;;;;5035977;28;20455;-64
2022/05/30 08:15:04;;;;;;;11.50;3.60;;;14.90;99.90;;;;;;5025807;28;20459;-64
2022/05/30 08:17:30;;;;;;;6.43;3.90;;;14.60;99.90;;;;;;5036671;28;20463;-64
2022/05/30 08:19:59;;;;;;;6.73;3.30;;;14.40;99.90;;;;;;5029886;28;20529;-64
2022/05/30 08:22:27;;;;;;;11.87;4.17;;;14.20;99.90;;;;;;5022364;28;20943;-64
2022/05/30 08:24:56;;;;;;;5.70;3.57;;;14.00;99.90;;;;;;5030450;28;20542;-64
2022/05/30 08:27:25;;;;;;;7.63;3.60;;;14.40;99.90;;;;;;5035103;28;20752;-64
2022/05/30 08:29:54;;;;;;;6.23;3.90;;;14.20;99.90;;;;;;5033781;28;20573;-64
2022/05/30 08:32:20;;;;;;;9.13;3.37;;;14.20;99.90;;;;;;5023315;28;20542;-64
2022/05/30 08:34:47;;;;;;;8.13;3.50;;;14.30;99.90;;;;;;5022502;28;20838;-64
2022/05/30 08:37:17;;;;;;;6.90;3.90;;;14.80;99.90;;;;;;5023933;28;20441;-64
2022/05/30 08:42:31;;;;;;;5.93;3.20;;;15.20;99.90;;;;;;5025739;28;20486;-64
2022/05/30 08:45:08;;;;;;;4.03;2.57;;;15.40;99.90;;;;;;5031905;28;20446;-64
2022/05/30 08:47:49;;;;;;;5.70;2.93;;;14.10;99.90;;;;;;5025952;28;20497;-63
2022/05/30 08:50:30;;;;;;;4.50;2.97;;;13.70;99.90;;;;;;5029516;28;20926;-63
2022/05/30 08:53:39;;;;;;;5.63;3.47;;;13.90;99.90;;;;;;5029996;28;20783;-63
2022/05/30 08:56:16;;;;;;;6.43;3.50;;;14.60;99.90;;;;;;4997542;28;20537;-63
2022/05/30 08:58:58;;;;;;;4.70;3.30;;;14.60;99.90;;;;;;4998254;28;20479;-63
2022/05/30 09:01:34;;;;;;;4.97;3.30;;;13.90;99.90;;;;;;5036558;28;20494;-63
2022/05/30 09:04:10;;;;;;;3.00;2.70;;;14.00;99.90;;;;;;5036423;28;20961;-63
2022/05/30 09:06:46;;;;;;;6.93;3.23;;;14.00;99.90;;;;;;5031846;28;20749;-63
2022/05/30 09:09:22;;;;;;;3.40;2.70;;;13.90;99.90;;;;;;5036803;28;20473;-63
2022/05/30 09:11:56;;;;;;;6.83;2.80;;;14.40;99.90;;;;;;5026464;28;20797;-63
2022/05/30 09:14:32;;;;;;;3.57;2.70;;;14.30;99.90;;;;;;5036351;28;20495;-64
2022/05/30 09:17:05;;;;;;;6.40;3.40;;;14.40;99.90;;;;;;5026368;28;20478;-64
2022/05/30 09:19:35;;;;;;;4.30;3.03;;;14.60;99.90;;;;;;5027051;28;20831;-64
2022/05/30 09:22:05;;;;;;;6.10;3.50;;;14.70;99.90;;;;;;5030743;28;20470;-64
2022/05/30 09:24:36;;;;;;;4.47;2.83;;;14.90;99.90;;;;;;5036005;28;20520;-64
2022/05/30 09:27:12;;;;;;;7.00;3.07;;;15.00;99.90;;;;;;5029518;28;20575;-63
2022/05/30 09:29:50;;;;;;;7.57;3.23;;;14.80;99.90;;;;;;5029797;28;20493;-63
2022/05/30 09:32:26;;;;;;;5.73;2.77;;;15.00;99.90;;;;;;5021941;28;20533;-64
2022/05/30 09:34:53;;;;;;;5.07;3.30;;;14.80;99.90;;;;;;5033133;28;20462;-63
2022/05/30 09:37:30;;;;;;;5.70;3.80;;;15.00;99.90;;;;;;5030929;28;20460;-63
2022/05/30 09:39:58;;;;;;;3.23;2.87;;;14.50;99.90;;;;;;5021826;28;20554;-63
2022/05/30 09:42:31;;;;;;;3.10;2.53;;;14.40;99.90;;;;;;5021536;28;20881;-63
2022/05/30 09:45:07;;;;;;;8.20;5.20;;;14.70;99.90;;;;;;5018656;28;20847;-63
2022/05/30 09:47:35;;;;;;;13.53;4.43;;;14.60;99.90;;;;;;5018191;28;20901;-63
2022/05/30 09:50:17;;;;;;;3.90;2.90;;;14.40;99.90;;;;;;5017868;28;20979;-63
2022/05/30 09:52:46;;;;;;;5.60;3.13;;;14.20;99.90;;;;;;5019655;28;20456;-63
2022/05/30 09:55:31;;;;;;;4.13;3.23;;;14.30;99.90;;;;;;5021448;28;20463;-63
2022/05/30 09:57:58;;;;;;;3.03;2.60;;;14.50;99.90;;;;;;5036255;28;20541;-62
2022/05/30 10:00:42;;;;;;;6.10;3.33;;;14.20;99.90;;;;;;5020123;28;20766;-63
2022/05/30 10:03:24;;;;;;;5.53;4.90;;;14.20;99.90;;;;;;5018401;28;20499;-63
2022/05/30 10:05:51;;;;;;;6.10;4.10;;;14.00;99.90;;;;;;5029566;28;20550;-63
2022/05/30 10:08:26;;;;;;;4.37;2.80;;;13.80;99.90;;;;;;5036941;28;20769;-63
2022/05/30 10:10:56;;;;;;;6.83;3.67;;;13.80;99.90;;;;;;5022800;28;20572;-63
2022/05/30 10:13:36;;;;;;;6.50;3.93;;;14.20;99.90;;;;;;5031891;28;20529;-63
2022/05/30 10:16:07;;;;;;;6.60;3.67;;;14.30;99.90;;;;;;5032828;28;20836;-62
2022/05/30 10:18:37;;;;;;;5.10;3.83;;;14.00;99.90;;;;;;5038304;28;20962;-62
2022/05/30 10:21:27;;;;;;;5.07;4.07;;;14.10;99.90;;;;;;5020453;28;20555;-63
2022/05/30 10:30:01;;;;;;;7.13;3.57;;;15.40;99.90;;;;;;5032889;28;20474;-63
2022/05/30 10:32:34;;;;;;;5.50;4.27;;;16.30;99.90;;;;;;5028160;28;20546;-63
2022/05/30 10:35:20;;;;;;;6.83;3.67;;;16.90;99.90;;;;;;5036582;28;20765;-63
2022/05/30 10:38:06;;;;;;;6.17;4.00;;;16.70;99.90;;;;;;5039273;28;20785;-63
2022/05/30 10:41:03;;;;;;;3.80;3.37;;;17.10;99.90;;;;;;5022999;28;20472;-64
2022/05/30 10:43:40;;;;;;;6.30;3.63;;;17.20;99.90;;;;;;5024849;28;20504;-64
2022/05/30 10:46:11;;;;;;;4.50;3.30;;;17.60;99.90;;;;;;5014276;28;20794;-64
2022/05/30 10:48:45;;;;;;;7.90;3.87;;;18.40;99.90;;;;;;5021976;28;20479;-63
2022/05/30 10:51:17;;;;;;;5.60;3.93;;;17.30;99.90;;;;;;5015330;28;20504;-63
2022/05/30 10:53:54;;;;;;;5.73;3.70;;;16.30;99.90;;;;;;5027894;28;20913;-64
2022/05/30 10:56:25;;;;;;;5.97;4.47;;;15.30;99.90;;;;;;5021562;28;20463;-63
2022/05/30 10:59:00;;;;;;;8.70;4.80;;;14.80;99.90;;;;;;5023911;28;20841;-63
2022/05/30 11:01:41;;;;;;;4.17;3.80;;;15.00;99.90;;;;;;5021790;28;20832;-63
2022/05/30 11:04:36;;;;;;;7.23;4.97;;;15.50;99.90;;;;;;5012280;28;20932;-63
2022/05/30 11:07:13;;;;;;;6.40;4.13;;;14.60;99.90;;;;;;5015407;28;20515;-63
2022/05/30 11:09:47;;;;;;;6.07;4.40;;;14.20;99.90;;;;;;5014264;28;20541;-64
2022/05/30 11:12:20;;;;;;;4.40;3.90;;;14.10;99.90;;;;;;5020729;28;20563;-63
2022/05/30 11:15:01;;;;;;;5.80;4.20;;;13.90;99.90;;;;;;5032897;28;20460;-63
2022/05/30 11:17:35;;;;;;;4.50;4.07;;;14.20;99.90;;;;;;5020991;28;20438;-62
2022/05/30 11:20:08;;;;;;;5.30;3.93;;;14.20;99.90;;;;;;5035645;28;20473;-62
2022/05/30 11:22:41;;;;;;;8.33;3.80;;;14.10;99.90;;;;;;5029075;28;20563;-63
2022/05/30 11:25:12;;;;;;;8.43;4.50;;;14.20;99.90;;;;;;5018332;28;20513;-63
2022/05/30 11:27:41;;;;;;;5.70;4.80;;;14.50;99.90;;;;;;5024625;28;20927;-63
2022/05/30 11:30:31;;;;;;;5.50;4.07;;;14.70;99.90;;;;;;5028831;28;20761;-63
2022/05/30 11:33:43;;;;;;;6.10;4.60;;;14.60;99.90;;;;;;5014892;28;20783;-63
2022/05/30 11:36:31;;;;;;;6.60;4.90;;;14.70;99.90;;;;;;5014422;28;20484;-63
2022/05/30 11:39:09;;;;;;;5.20;4.63;;;15.10;99.90;;;;;;5001808;28;20519;-63
2022/05/30 11:41:59;;;;;;;4.63;4.20;;;15.40;99.90;;;;;;5015944;28;20521;-63
2022/05/30 11:44:47;;;;;;;4.73;4.30;;;15.90;99.90;;;;;;5017438;28;20504;-63
2022/05/30 11:47:34;;;;;;;5.57;4.47;;;16.60;99.90;;;;;;4999525;28;20558;-63
2022/05/30 11:50:32;;;;;;;4.43;4.03;;;16.10;99.90;;;;;;5017721;28;20539;-63
2022/05/30 11:53:21;;;;;;;5.33;4.93;;;15.50;99.90;;;;;;5009550;28;20468;-63
2022/05/30 11:55:57;;;;;;;5.87;4.57;;;15.40;99.90;;;;;;4998183;28;20471;-63
2022/05/30 11:58:33;;;;;;;5.20;4.30;;;15.40;99.90;;;;;;5006972;28;20905;-62
2022/05/30 12:01:03;;;;;;;5.80;4.80;;;16.20;99.90;;;;;;5017373;28;20901;-63
2022/05/30 12:04:00;;;;;;;6.40;3.87;;;16.90;99.90;;;;;;5013618;28;20948;-63
2022/05/30 12:06:51;;;;;;;5.87;4.60;;;17.90;99.90;;;;;;4999757;28;20467;-63
2022/05/30 12:09:53;;;;;;;3.90;3.60;;;18.50;99.90;;;;;;5015305;28;20468;-63
2022/05/30 12:12:43;;;;;;;4.80;4.40;;;19.20;99.90;;;;;;5015913;28;20497;-63
2022/05/30 12:15:58;;;;;;;4.53;4.17;;;19.70;99.90;;;;;;5014061;28;20448;-64
2022/05/30 12:24:37;;;;;;;5.20;4.70;;;19.90;99.90;;;;;;5013234;28;20450;-63
2022/05/30 12:27:37;;;;;;;5.23;4.73;;;19.80;99.90;;;;;;5014992;28;20471;-63
2022/05/30 12:30:15;;;;;;;7.37;4.73;;;19.50;99.90;;;;;;5011158;28;20480;-63
2022/05/30 12:32:45;;;;;;;4.20;3.90;;;19.50;99.90;;;;;;5016209;28;20462;-63
2022/05/30 12:35:28;;;;;;;5.50;4.73;;;19.80;99.90;;;;;;5013395;28;20493;-63
2022/05/30 12:38:17;;;;;;;5.60;5.10;;;19.40;99.90;;;;;;5014381;28;20456;-62
2022/05/30 12:41:15;;;;;;;7.57;5.40;;;19.50;99.90;;;;;;5014188;28;20452;-63
2022/05/30 12:43:49;;;;;;;7.13;5.00;;;19.30;99.90;;;;;;5014694;28;20583;-64
2022/05/30 12:46:28;;;;;;;7.60;4.77;;;19.90;99.90;;;;;;5014200;28;20442;-63
2022/05/30 12:49:06;;;;;;;5.03;4.60;;;20.70;99.90;;;;;;5014055;28;20442;-62
2022/05/30 12:52:05;;;;;;;5.60;5.10;;;18.90;99.90;;;;;;5013626;28;20554;-62
2022/05/30 12:55:00;;;;;;;4.90;4.50;;;18.60;99.90;;;;;;4997571;28;20830;-63
2022/05/30 12:57:39;;;;;;;6.13;5.23;;;19.20;99.90;;;;;;4997846;28;20518;-62
2022/05/30 13:00:49;;;;;;;5.60;5.00;;;19.70;99.90;;;;;;4997451;28;20464;-62
2022/05/30 13:03:36;;;;;;;6.73;4.63;;;18.40;99.90;;;;;;4997591;28;20492;-63
2022/05/30 13:06:10;;;;;;;5.97;4.80;;;18.30;99.90;;;;;;4997434;28;20468;-63
2022/05/30 13:09:10;;;;;;;4.10;3.70;;;18.30;99.90;;;;;;4997686;28;20435;-63
2022/05/30 13:12:10;;;;;;;4.10;3.73;;;17.90;99.90;;;;;;4997677;28;20511;-62
2022/05/30 13:15:08;;;;;;;4.27;3.70;;;17.30;99.90;;;;;;5000981;28;20949;-62
2022/05/30 13:17:55;;;;;;;4.27;3.60;;;16.10;99.90;;;;;;5001402;28;20439;-62
2022/05/30 13:20:25;;;;;;;5.13;4.50;;;15.50;99.90;;;;;;4998656;28;20902;-62
2022/05/30 13:22:54;;;;;;;4.60;3.90;;;15.20;99.90;;;;;;5013153;28;20522;-62
2022/05/30 13:25:29;;;;;;;4.37;3.97;;;14.90;99.90;;;;;;5020684;28;20593;-62
2022/05/30 13:28:03;;;;;;;4.50;3.83;;;15.00;99.90;;;;;;5020356;28;20438;-62
2022/05/30 13:30:33;;;;;;;5.90;3.90;;;15.10;99.90;;;;;;5019487;28;20487;-62
2022/05/30 13:33:09;;;;;;;6.30;4.20;;;15.10;99.90;;;;;;5018715;28;20939;-62
2022/05/30 13:35:39;;;;;;;7.30;4.03;;;15.40;99.90;;;;;;5019246;28;20491;-62
2022/05/30 13:38:10;;;;;;;4.93;4.00;;;14.90;99.90;;;;;;5019238;28;20499;-62
2022/05/30 13:40:38;;;;;;;6.37;4.37;;;14.60;99.90;;;;;;5019695;28;20499;-62
2022/05/30 13:43:07;;;;;;;6.83;3.90;;;14.90;99.90;;;;;;5019810;28;20799;-63
2022/05/30 13:45:37;;;;;;;4.77;3.93;;;15.40;99.90;;;;;;5020705;28;20550;-62
2022/05/30 13:48:10;;;;;;;5.07;4.10;;;15.90;99.90;;;;;;5019497;28;20498;-62